İstanbul, Türkiye

Saat: 04:32 AM EEST Tarih: 25 Temmuz 2014 (GMT +0300)
Ataturk (LTBA) Elev 121 ft | 40.98 °N, 28.81 °E | Change Station

Current weather conditions updated 12 minutes ago

Partly Cloudy
Parçalı Bulutlu
73
Feels Like 73
N
7
Rüzgar Değişken Rüzgar from KKB

Today is forecast to be Cooler than yesterday. Sabah sağanak yağmur..

Bugün
High -- | Low -- F°
--% Chance of Precip.
Dün
High -- | Low -- F°
Precip. -- inç
5:53 AM 8:28 PM
Hilal, 3% visible
Basınç 29.80 inç
Görüş Uzaklığı 6.2 mil
Bulutlar Few 3000 ft
Çiğ noktası 70
Nem oranı 88%
Yağış 0.00 inç
Kar Kalınlığı Not available.
0 out of 12
Pollen Not available.
Hava Kalitesi Not available.
Flu Activity Not available.
METAR LTBA 250120Z 34006KT 9999 FEW030 23/21 Q1009 NOSIG

More Conditions Fewer Conditions

Basınç 29.80 inç
Görüş Uzaklığı 6.2 mil
Bulutlar Few 3000 ft
Çiğ noktası 70
Nem oranı 88%
Yağış 0.00 inç
Kar Kalınlığı Not available.
0 out of 12
Pollen Not available.
Hava Kalitesi Not available.
Flu Activity Not available.
METAR LTBA 250120Z 34006KT 9999 FEW030 23/21 Q1009 NOSIG

More Conditions Fewer Conditions

10-Day Weather Forecast

Almanac

Gökbilim

Jul. 25, 2014 Rise Set
Gerçek Zaman 05:53 EEST 20:28 EEST
Günlük Tan 05:22 EEST 20:59 EEST
Deniz Tanı 04:42 EEST 21:38 EEST
Geceyarısı Yıldız Zamanı 03:58 EEST 22:22 EEST
Ay 04:36 EEST 19:11 EEST
Görünür Işığın Uzunluğu 15h 37m
Günün Uzunluğu
14h 34m
Tomorrow will be 1m 49s shorter.
Hilal, 3% of the Moon is Illuminated
Jul 24
Hilal
Jul 26
New
Aug 3
İlk Hilãl
Aug 10
Dolunay
Aug 17
Son Hilãl

Yesterday's Extremes

Country Highs Country Lows

Community

WunderPhotos

Upload Photos

1,737,184 photos uploaded!

Nearby

Kar Kalınlığı

Not available.

Earthquake Activity

Şehir Distance Mag. Time & Date
No recent earthquake activity has been reported nearby.
Minimum magnitude displayed is 2.5.

Coastal Water Temperatures

Yer Sıcaklık
No Stations Reporting

Nearby Weather Stations

Station Location Sıcaklık Sıcaklık endeksi Çiğ noktası Nem oranı Rüzgar Precip. Elev Güncellenme Zamanı Biçim
Balmumcu, Istanbul 72.3 F° 71 F° 68 F° 86% KKD  yönü  7.0 mil 0.00 inç / hr 350 ft 4:32 AM EEST Normal
Yapi Kredi Plaza - Levent, Ä°stanbul 71.6 F° - 69 F° 91% Batı  yönü  7.0 mil 0.00 inç / hr 430 ft 4:24 AM EEST Normal
Istanbul, Akatlar 71.3 F° - 70 F° 97% KKB  yönü  0.0 mil - / hr 420 ft 4:32 AM EEST Normal
Istinye 70.6 F° - 69 F° 96% KB  yönü  0.0 mil 0.00 inç / hr 345 ft 4:30 AM EEST Normal
Istinye 70.6 F° - 69 F° 96% KB  yönü  0.0 mil 0.00 inç / hr 345 ft 4:30 AM EEST Normal
Demircikoy-Sariyer 72.9 F° 71 F° 69 F° 89% KKB  yönü  3.0 mil 0.00 inç / hr 390 ft 4:31 AM EEST Normal
U.N. Ro-Ro Pendik Port, Ä°stanbul 76.4 F° 77 F° 71 F° 83% Güney  yönü  0.0 mil - / hr 10 ft 4:15 AM EEST Normal

Show More Stations Show Fewer Stations